Time;durP1;ratioP1;P1;durP2;ratioP2;P2;SDS_P1;SDS_P2;PMS_P1;PMS_P2;Temp;Humidity;BMP_temperature;BMP_pressure;BME280_temperature;BME280_humidity;BME280_pressure;Samples;Min_cycle;Max_cycle;Signal;HPM_P1;HPM_P2
2022/01/06 00:00:47;;;;;;;10.60;4.60;;;;;;;1.88;82.61;98950.23;84530;1332;26360;-75
2022/01/06 00:02:59;;;;;;;6.00;4.20;;;;;;;1.87;82.61;98949.40;84486;1333;26038;-75
2022/01/06 00:05:09;;;;;;;8.60;4.40;;;;;;;1.85;82.70;98944.14;84587;1332;22623;-74
2022/01/06 00:07:20;;;;;;;12.90;5.10;;;;;;;1.85;83.01;98941.72;84561;1330;23970;-74
2022/01/06 00:09:32;;;;;;;7.90;4.80;;;;;;;1.85;83.10;98935.36;84560;1333;24243;-74
2022/01/06 00:11:44;;;;;;;7.70;4.80;;;;;;;1.82;83.28;98936.46;84546;1331;25387;-70
2022/01/06 00:14:01;;;;;;;8.10;5.20;;;;;;;1.80;83.36;98936.67;84564;1330;22682;-68
2022/01/06 00:16:23;;;;;;;9.20;4.70;;;;;;;1.79;83.48;98939.98;84594;1332;22642;-70
2022/01/06 00:23:05;;;;;;;9.30;4.50;;;;;;;1.78;83.54;98941.20;84472;1332;25328;-70
2022/01/06 00:23:43;;;;;;;10.20;4.70;;;;;;;1.75;83.77;98938.52;84498;1333;22610;-70
2022/01/06 00:25:57;;;;;;;6.70;4.10;;;;;;;1.71;83.80;98940.35;84558;1331;22603;-74
2022/01/06 00:28:08;;;;;;;9.60;5.50;;;;;;;1.69;83.92;98934.92;84559;1331;23910;-74
2022/01/06 00:30:18;;;;;;;7.50;5.10;;;;;;;1.69;84.24;98935.60;84583;1328;22582;-73
2022/01/06 00:32:26;;;;;;;8.00;4.90;;;;;;;1.69;84.28;98933.88;84569;1331;22618;-74
2022/01/06 00:34:38;;;;;;;7.50;4.80;;;;;;;1.65;84.18;98935.52;84552;1334;22624;-74
2022/01/06 00:36:47;;;;;;;8.60;4.80;;;;;;;1.61;84.16;98935.60;84567;1332;22683;-74
2022/01/06 00:38:59;;;;;;;12.10;5.70;;;;;;;1.61;84.46;98932.52;84432;1334;22674;-73
2022/01/06 00:41:08;;;;;;;10.00;5.80;;;;;;;1.63;84.43;98934.21;84560;1332;22758;-71
2022/01/06 00:43:23;;;;;;;8.70;5.40;;;;;;;1.65;84.39;98933.96;84588;1323;22625;-71
2022/01/06 00:45:41;;;;;;;11.10;5.20;;;;;;;1.68;84.59;98932.35;84598;1327;22640;-71
2022/01/06 00:47:51;;;;;;;10.20;5.60;;;;;;;1.70;84.67;98932.29;84437;1327;22610;-74
2022/01/06 00:50:00;;;;;;;9.60;6.10;;;;;;;1.71;84.63;98931.23;84568;1332;23838;-74
2022/01/06 00:52:09;;;;;;;11.20;6.20;;;;;;;1.69;84.59;98932.32;84555;1333;22620;-74
2022/01/06 00:54:18;;;;;;;18.50;6.70;;;;;;;1.70;84.64;98933.49;83843;1330;1003154;-75
2022/01/06 00:56:28;;;;;;;10.10;6.30;;;;;;;1.70;84.53;98935.23;84566;1333;22633;-74
2022/01/06 00:58:38;;;;;;;10.70;6.80;;;;;;;1.69;84.48;98934.20;84558;1333;24193;-74
2022/01/06 01:00:50;;;;;;;9.90;5.30;;;;;;;1.70;84.45;98933.16;84549;1333;23961;-71
2022/01/06 01:02:59;;;;;;;12.00;5.40;;;;;;;1.74;84.46;98931.35;84564;1332;22587;-70
2022/01/06 01:05:09;;;;;;;13.10;6.70;;;;;;;1.76;84.46;98931.96;84550;1332;22622;-71
2022/01/06 01:07:18;;;;;;;10.90;5.70;;;;;;;1.78;84.55;98929.52;84534;1328;24300;-71
2022/01/06 01:09:31;;;;;;;9.40;6.00;;;;;;;1.81;84.58;98929.41;84548;1331;25284;-71
2022/01/06 01:11:41;;;;;;;10.50;6.70;;;;;;;1.84;84.39;98926.29;84549;1331;22728;-74
2022/01/06 01:13:56;;;;;;;11.20;6.10;;;;;;;1.85;84.52;98921.43;84557;1334;22633;-74
2022/01/06 01:16:20;;;;;;;8.90;5.60;;;;;;;1.87;84.45;98918.10;84570;1332;25499;-74
2022/01/06 01:18:32;;;;;;;14.30;7.80;;;;;;;1.88;84.47;98922.23;84560;1332;25451;-73
2022/01/06 01:20:45;;;;;;;11.30;5.00;;;;;;;1.89;84.38;98922.89;84549;1327;22588;-73
2022/01/06 01:22:54;;;;;;;7.60;5.10;;;;;;;1.92;84.40;98922.96;84535;1333;22634;-74
2022/01/06 01:25:07;;;;;;;9.30;5.30;;;;;;;1.94;84.47;98924.46;84552;1333;24259;-72
2022/01/06 01:27:21;;;;;;;8.40;5.10;;;;;;;1.96;84.41;98924.91;83884;1328;1003027;-74
2022/01/06 01:29:40;;;;;;;9.70;5.10;;;;;;;1.99;84.54;98918.32;84542;1331;22622;-73
2022/01/06 01:31:51;;;;;;;10.10;6.10;;;;;;;1.99;84.48;98916.73;84577;1332;22636;-73
2022/01/06 01:34:09;;;;;;;9.90;5.20;;;;;;;2.01;84.44;98913.43;84564;1332;22606;-75
2022/01/06 01:36:19;;;;;;;7.00;4.80;;;;;;;2.02;84.59;98908.95;84554;1332;22615;-70
2022/01/06 01:38:29;;;;;;;;;;;;;;;2.04;84.51;98908.02;84568;1327;22584;-70
2022/01/06 01:40:42;;;;;;;6.60;4.60;;;;;;;2.04;84.60;98908.55;84559;1332;22661;-75
2022/01/06 01:42:51;;;;;;;7.00;4.30;;;;;;;2.10;84.70;98912.85;84556;1331;22686;-75
2022/01/06 01:45:02;;;;;;;6.40;4.60;;;;;;;2.15;84.75;98916.48;84575;1332;22625;-71
2022/01/06 01:47:15;;;;;;;6.90;5.10;;;;;;;2.18;84.72;98919.01;84559;1325;25457;-71
2022/01/06 01:49:43;;;;;;;9.20;4.40;;;;;;;2.20;84.73;98918.08;84520;1331;22622;-70
2022/01/06 01:51:53;;;;;;;8.10;4.60;;;;;;;2.20;84.68;98922.05;84533;1331;22900;-75
2022/01/06 01:54:04;;;;;;;8.10;4.60;;;;;;;2.20;84.89;98922.57;84494;1329;22600;-75
2022/01/06 01:56:19;;;;;;;6.50;4.20;;;;;;;2.20;84.84;98922.05;84492;1332;22632;-75
2022/01/06 01:58:29;;;;;;;3.90;3.50;;;;;;;2.19;84.79;98922.08;84563;1331;22678;-75
2022/01/06 02:00:38;;;;;;;7.90;4.20;;;;;;;2.21;84.98;98923.75;84553;1332;24396;-71
2022/01/06 02:02:52;;;;;;;7.50;4.30;;;;;;;2.21;85.13;98927.17;84483;1332;22787;-71
2022/01/06 02:05:08;;;;;;;4.90;4.20;;;;;;;2.22;85.09;98924.08;84481;1332;25284;-71
2022/01/06 02:07:23;;;;;;;6.50;4.20;;;;;;;2.22;85.32;98926.98;84558;1332;22624;-71
2022/01/06 02:09:38;;;;;;;7.70;4.60;;;;;;;2.20;85.20;98926.35;84588;1332;24227;-71
2022/01/06 02:11:48;;;;;;;6.90;4.50;;;;;;;2.21;85.30;98926.66;84556;1332;22692;-75
2022/01/06 02:13:59;;;;;;;;;;;;;;;2.22;85.29;98927.15;84569;1332;22592;-74
2022/01/06 02:16:09;;;;;;;6.80;4.10;;;;;;;2.23;85.45;98928.31;84561;1327;22643;-70
2022/01/06 02:18:28;;;;;;;8.50;4.10;;;;;;;2.27;85.65;98924.59;84460;1333;22606;-71
2022/01/06 02:20:38;;;;;;;11.40;4.70;;;;;;;2.29;85.62;98925.21;84539;1327;22599;-75
2022/01/06 02:22:47;;;;;;;7.70;4.50;;;;;;;2.32;85.63;98928.77;84549;1331;22590;-74
2022/01/06 02:25:01;;;;;;;5.30;4.80;;;;;;;2.33;85.71;98927.88;84531;1333;25349;-69
2022/01/06 02:27:14;;;;;;;9.80;4.20;;;;;;;2.35;85.77;98928.51;84547;1332;22589;-71
2022/01/06 02:29:30;;;;;;;6.90;4.30;;;;;;;2.35;85.75;98931.09;84443;1334;22593;-70
2022/01/06 02:31:47;;;;;;;7.00;4.40;;;;;;;2.35;85.54;98928.67;84576;1331;22615;-69
2022/01/06 02:33:57;;;;;;;10.90;4.90;;;;;;;2.36;85.83;98929.00;84577;1331;22684;-69
2022/01/06 02:36:10;;;;;;;4.60;3.90;;;;;;;2.39;85.85;98925.13;84573;1332;22707;-75
2022/01/06 02:38:22;;;;;;;5.50;3.90;;;;;;;2.42;85.89;98924.36;84562;1330;22628;-75
2022/01/06 02:40:34;;;;;;;7.20;4.30;;;;;;;2.43;85.91;98927.27;84586;1331;25291;-75
2022/01/06 02:42:48;;;;;;;8.30;4.50;;;;;;;2.44;86.06;98931.34;84559;1332;23973;-76
2022/01/06 02:45:00;;;;;;;8.60;4.90;;;;;;;2.43;86.01;98928.80;84587;1332;22685;-71
2022/01/06 02:47:12;;;;;;;8.50;4.00;;;;;;;2.42;85.88;98928.67;84571;1333;22616;-73
2022/01/06 02:49:25;;;;;;;7.80;4.40;;;;;;;2.42;85.97;98931.08;84559;1325;26519;-75
2022/01/06 02:51:37;;;;;;;7.50;4.30;;;;;;;2.45;85.98;98922.37;84486;1332;22723;-74
2022/01/06 02:53:53;;;;;;;5.40;3.90;;;;;;;2.49;86.12;98916.94;84574;1334;25492;-75
2022/01/06 02:56:02;;;;;;;7.70;4.50;;;;;;;2.49;85.95;98915.02;84565;1332;22672;-70
2022/01/06 02:58:11;;;;;;;9.20;4.40;;;;;;;2.51;86.16;98916.70;84554;1331;22828;-70
2022/01/06 03:00:20;;;;;;;7.00;4.50;;;;;;;2.53;86.14;98916.64;84581;1332;24313;-75
2022/01/06 03:02:32;;;;;;;9.50;4.80;;;;;;;2.53;86.14;98913.54;84551;1327;22634;-75
2022/01/06 03:04:44;;;;;;;6.40;4.20;;;;;;;2.52;86.17;98915.81;84573;1333;26480;-74
2022/01/06 03:06:57;;;;;;;7.10;4.00;;;;;;;2.53;85.95;98918.04;84545;1329;22721;-74
2022/01/06 03:09:07;;;;;;;5.50;3.90;;;;;;;2.54;86.06;98918.34;84559;1331;25434;-76
2022/01/06 03:11:25;;;;;;;6.10;4.10;;;;;;;2.57;86.20;98922.21;84563;1330;22616;-75
2022/01/06 03:13:34;;;;;;;4.00;3.20;;;;;;;2.61;86.25;98924.67;84567;1334;22735;-76
2022/01/06 03:15:43;;;;;;;7.20;3.60;;;;;;;2.64;86.21;98923.91;84569;1331;24237;-70
2022/01/06 03:17:57;;;;;;;8.20;3.40;;;;;;;2.66;86.28;98927.29;84531;1332;22971;-70
2022/01/06 03:20:08;;;;;;;6.30;4.50;;;;;;;2.68;86.25;98925.88;84550;1332;22636;-76
2022/01/06 03:22:17;;;;;;;4.70;4.20;;;;;;;2.68;86.14;98928.97;84562;1334;22637;-74
2022/01/06 03:24:26;;;;;;;7.90;4.60;;;;;;;2.66;86.26;98930.39;84544;1328;22713;-73
2022/01/06 03:26:38;;;;;;;4.40;3.40;;;;;;;2.65;86.05;98934.20;84452;1332;24238;-74
2022/01/06 03:28:47;;;;;;;5.80;3.20;;;;;;;2.67;86.15;98936.21;84462;1332;25320;-74
2022/01/06 03:30:57;;;;;;;3.80;3.30;;;;;;;2.68;86.05;98937.21;84543;1332;22686;-75
2022/01/06 03:33:05;;;;;;;5.20;3.30;;;;;;;2.70;86.23;98941.29;84546;1333;22588;-75
2022/01/06 03:35:16;;;;;;;7.50;3.60;;;;;;;2.72;86.21;98946.08;84528;1331;24268;-70
2022/01/06 03:37:26;;;;;;;5.80;4.00;;;;;;;2.73;86.24;98947.91;84536;1331;26726;-71
2022/01/06 03:39:38;;;;;;;6.90;4.00;;;;;;;2.71;86.11;98947.79;84550;1333;24341;-72
2022/01/06 03:41:47;;;;;;;7.30;4.10;;;;;;;2.70;86.16;98951.96;84559;1332;22740;-71
2022/01/06 03:43:55;;;;;;;4.80;4.10;;;;;;;2.69;86.08;98953.89;84566;1332;22634;-70
2022/01/06 03:46:07;;;;;;;7.90;3.80;;;;;;;2.69;86.11;98964.03;84581;1327;22773;-72
2022/01/06 03:48:16;;;;;;;6.70;3.90;;;;;;;2.69;86.13;98960.62;84552;1332;24218;-71
2022/01/06 03:50:25;;;;;;;5.30;3.50;;;;;;;2.71;86.16;98962.44;84541;1329;25539;-74
2022/01/06 03:52:33;;;;;;;7.80;3.80;;;;;;;2.73;86.33;98966.50;84532;1334;22842;-74
2022/01/06 03:54:42;;;;;;;6.40;4.20;;;;;;;2.77;86.49;98969.33;84557;1332;22613;-71
2022/01/06 03:56:52;;;;;;;7.40;4.10;;;;;;;2.81;86.51;98966.98;84530;1331;24104;-70
2022/01/06 03:59:01;;;;;;;8.50;4.80;;;;;;;2.81;86.27;98969.20;84465;1332;22595;-71
2022/01/06 04:01:10;;;;;;;8.00;5.70;;;;;;;2.79;86.44;98974.43;84566;1334;22606;-70
2022/01/06 04:03:22;;;;;;;5.50;3.60;;;;;;;2.76;86.31;98974.52;84552;1331;22672;-70
2022/01/06 04:05:31;;;;;;;4.90;3.70;;;;;;;2.75;86.14;98970.91;84536;1332;22620;-71
2022/01/06 04:07:42;;;;;;;;;;;;;;;2.75;86.20;98975.06;84551;1333;22604;-71
2022/01/06 04:09:51;;;;;;;5.30;4.10;;;;;;;2.74;86.33;98977.67;84555;1332;22991;-71
2022/01/06 04:12:00;;;;;;;5.20;4.00;;;;;;;2.75;86.35;98980.05;84539;1332;23879;-71
2022/01/06 04:14:12;;;;;;;5.90;3.40;;;;;;;2.75;86.36;98982.98;84523;1331;22581;-71
2022/01/06 04:16:25;;;;;;;6.30;4.50;;;;;;;2.76;86.46;98985.20;84557;1331;23868;-75
2022/01/06 04:18:37;;;;;;;6.70;5.30;;;;;;;2.77;86.60;98989.82;84524;1333;22590;-74
2022/01/06 04:20:49;;;;;;;6.00;4.60;;;;;;;2.77;86.54;98992.75;84549;1331;22884;-71
2022/01/06 04:23:01;;;;;;;6.00;4.70;;;;;;;2.77;86.59;98989.13;84561;1328;22597;-70
2022/01/06 04:25:13;;;;;;;7.80;4.20;;;;;;;2.79;86.42;98990.61;84558;1332;23069;-70
2022/01/06 04:27:22;;;;;;;4.50;3.80;;;;;;;2.79;86.49;98991.83;84553;1331;24973;-70
2022/01/06 04:29:33;;;;;;;6.00;3.30;;;;;;;2.77;86.39;98986.55;84466;1334;23880;-70
2022/01/06 04:31:42;;;;;;;4.50;4.10;;;;;;;2.78;86.46;98994.11;84519;1333;23951;-74
2022/01/06 04:33:54;;;;;;;4.40;4.00;;;;;;;2.76;86.32;98994.33;84559;1334;22632;-74
2022/01/06 04:36:02;;;;;;;4.60;4.30;;;;;;;2.76;86.43;98994.16;84576;1331;22616;-75
2022/01/06 04:38:11;;;;;;;4.50;3.70;;;;;;;2.77;86.51;98998.42;84543;1333;22831;-74
2022/01/06 04:40:20;;;;;;;3.70;3.40;;;;;;;2.78;86.71;98998.41;84536;1325;22817;-74
2022/01/06 04:42:29;;;;;;;4.60;3.50;;;;;;;2.79;86.56;99000.95;84523;1331;25439;-74
2022/01/06 04:44:41;;;;;;;4.90;3.40;;;;;;;2.78;86.46;98994.61;84573;1333;22897;-72
2022/01/06 04:46:50;;;;;;;3.90;2.50;;;;;;;2.77;86.31;99000.15;84543;1328;22711;-75
2022/01/06 04:48:59;;;;;;;4.20;3.00;;;;;;;2.78;86.46;98999.25;84536;1331;24059;-73
2022/01/06 04:51:08;;;;;;;4.60;2.80;;;;;;;2.80;86.46;99004.55;82415;1332;3022938;-74
2022/01/06 04:53:17;;;;;;;3.40;2.90;;;;;;;2.80;86.55;99010.23;84523;1326;22777;-74
2022/01/06 04:55:26;;;;;;;4.90;3.70;;;;;;;2.78;86.53;99018.56;84534;1334;26011;-71
2022/01/06 04:57:35;;;;;;;4.80;3.90;;;;;;;2.78;86.67;99018.39;84545;1333;23113;-70
2022/01/06 04:59:44;;;;;;;4.20;3.80;;;;;;;2.77;86.58;99020.83;84548;1331;24313;-74
2022/01/06 05:01:53;;;;;;;5.00;3.90;;;;;;;2.78;86.68;99023.19;84548;1326;23746;-73
2022/01/06 05:04:01;;;;;;;3.60;3.30;;;;;;;2.81;86.48;99019.52;84559;1333;23944;-74
2022/01/06 05:06:10;;;;;;;4.60;3.20;;;;;;;2.83;86.67;99021.34;84584;1334;25316;-71
2022/01/06 05:08:19;;;;;;;4.00;3.60;;;;;;;2.86;86.66;99027.11;84526;1333;22590;-70
2022/01/06 05:10:28;;;;;;;4.60;3.60;;;;;;;2.86;86.64;99030.39;84579;1332;24249;-70
2022/01/06 05:12:40;;;;;;;5.10;3.00;;;;;;;2.86;86.71;99038.30;84539;1332;22597;-72
2022/01/06 05:14:49;;;;;;;4.30;3.20;;;;;;;2.87;86.58;99033.81;84560;1327;22601;-73
2022/01/06 05:16:59;;;;;;;4.80;3.70;;;;;;;2.86;86.55;99031.93;83836;1326;1003106;-74
2022/01/06 05:19:08;;;;;;;3.40;3.10;;;;;;;2.86;86.55;99038.48;83830;1331;1002909;-74
2022/01/06 05:21:20;;;;;;;3.50;3.20;;;;;;;2.84;86.38;99037.48;84526;1332;22924;-75
2022/01/06 05:23:29;;;;;;;5.50;3.50;;;;;;;2.84;86.29;99037.33;84526;1330;22624;-74
2022/01/06 05:25:40;;;;;;;4.30;3.50;;;;;;;2.83;86.45;99036.83;84547;1332;24308;-71
2022/01/06 05:27:49;;;;;;;4.50;3.70;;;;;;;2.84;86.43;99035.41;84549;1327;22779;-70
2022/01/06 05:29:58;;;;;;;4.60;3.80;;;;;;;2.84;86.54;99038.16;84518;1332;22621;-74
2022/01/06 05:32:11;;;;;;;4.80;4.20;;;;;;;2.86;86.63;99041.40;84543;1334;22782;-74
2022/01/06 05:34:23;;;;;;;3.80;3.50;;;;;;;2.85;86.48;99042.27;84534;1327;22656;-74
2022/01/06 05:36:32;;;;;;;3.70;3.30;;;;;;;2.87;86.47;99042.74;84519;1331;22610;-74
2022/01/06 05:38:40;;;;;;;3.70;3.30;;;;;;;2.87;86.43;99038.79;84543;1332;22613;-74
2022/01/06 05:40:49;;;;;;;3.80;3.50;;;;;;;2.89;86.44;99041.66;84559;1330;25463;-68
2022/01/06 05:42:58;;;;;;;4.10;3.40;;;;;;;2.92;86.51;99042.13;83838;1331;1003109;-71
2022/01/06 05:45:12;;;;;;;3.80;3.20;;;;;;;2.94;86.64;99035.15;84525;1331;22597;-76
2022/01/06 05:47:24;;;;;;;3.40;3.00;;;;;;;2.94;86.46;99034.12;84551;1331;22721;-75
2022/01/06 05:49:36;;;;;;;4.60;3.60;;;;;;;2.90;86.10;99034.91;84540;1334;23917;-73
2022/01/06 05:51:45;;;;;;;3.20;2.90;;;;;;;2.84;86.06;99037.83;84536;1332;22883;-70
2022/01/06 05:53:54;;;;;;;4.10;3.70;;;;;;;2.80;86.07;99037.77;84519;1332;22752;-70
2022/01/06 05:56:06;;;;;;;2.80;2.50;;;;;;;2.79;86.09;99044.00;84523;1333;22823;-70
2022/01/06 05:58:18;;;;;;;2.60;2.40;;;;;;;2.75;86.01;99043.78;84522;1331;22756;-70
2022/01/06 06:00:31;;;;;;;4.30;3.20;;;;;;;2.70;85.84;99048.39;84535;1333;22584;-73
2022/01/06 06:02:40;;;;;;;3.00;2.70;;;;;;;2.66;85.96;99052.82;84505;1331;22935;-74
2022/01/06 06:04:52;;;;;;;3.30;2.50;;;;;;;2.64;86.25;99059.23;84578;1333;25182;-73
2022/01/06 06:07:01;;;;;;;2.40;2.20;;;;;;;2.60;86.05;99060.90;84531;1333;25399;-74
2022/01/06 06:09:10;;;;;;;7.30;2.90;;;;;;;2.54;86.00;99069.83;84440;1328;22632;-75
2022/01/06 06:11:19;;;;;;;4.50;3.20;;;;;;;2.46;85.98;99072.60;84572;1331;25002;-74
2022/01/06 06:13:28;;;;;;;3.90;3.10;;;;;;;2.43;86.28;99078.89;84538;1331;25447;-73
2022/01/06 06:15:37;;;;;;;4.40;2.90;;;;;;;2.44;86.43;99081.95;83126;1332;2002972;-70
2022/01/06 06:17:46;;;;;;;3.70;2.60;;;;;;;2.45;86.41;99086.76;84531;1330;22605;-70
2022/01/06 06:19:55;;;;;;;4.00;3.10;;;;;;;2.46;86.58;99086.89;84530;1334;24377;-74
2022/01/06 06:22:04;;;;;;;3.30;2.40;;;;;;;2.48;86.71;99090.63;84542;1331;24083;-74
2022/01/06 06:24:14;;;;;;;3.00;2.50;;;;;;;2.53;86.83;99094.82;84531;1334;22628;-74
2022/01/06 06:26:23;;;;;;;2.90;2.70;;;;;;;2.55;86.65;99100.23;84543;1331;22629;-70
2022/01/06 06:28:32;;;;;;;3.20;2.90;;;;;;;2.57;86.60;99106.59;84553;1333;22631;-71
2022/01/06 06:30:41;;;;;;;5.40;3.50;;;;;;;2.57;86.64;99111.94;84535;1332;24966;-75
2022/01/06 06:32:49;;;;;;;5.90;3.50;;;;;;;2.60;86.60;99111.48;84554;1333;22609;-74
2022/01/06 06:34:59;;;;;;;3.30;2.40;;;;;;;2.61;86.42;99116.83;84518;1334;22685;-70
2022/01/06 06:37:11;;;;;;;3.40;2.30;;;;;;;2.65;86.60;99125.30;84514;1334;22722;-70
2022/01/06 06:39:20;;;;;;;3.10;2.40;;;;;;;2.67;86.40;99126.81;84402;1335;22616;-71
2022/01/06 06:41:33;;;;;;;3.10;2.40;;;;;;;2.65;86.23;99124.80;84542;1332;23941;-71
2022/01/06 06:43:42;;;;;;;3.40;2.90;;;;;;;2.66;86.14;99131.84;84416;1334;22731;-70
2022/01/06 06:45:51;;;;;;;4.10;2.80;;;;;;;2.67;86.41;99137.48;84476;1332;22609;-71
2022/01/06 06:48:04;;;;;;;5.70;3.00;;;;;;;2.69;86.23;99140.54;84528;1331;23991;-71
2022/01/06 06:50:15;;;;;;;3.30;3.00;;;;;;;2.69;86.01;99145.71;84556;1333;22725;-74
2022/01/06 06:52:28;;;;;;;4.00;2.90;;;;;;;2.65;85.82;99141.33;84537;1334;25521;-73
2022/01/06 06:54:40;;;;;;;4.20;2.70;;;;;;;2.64;85.78;99150.48;84418;1334;22609;-71
2022/01/06 06:56:49;;;;;;;3.90;2.90;;;;;;;2.65;85.77;99155.95;84517;1334;24274;-71
2022/01/06 06:59:01;;;;;;;3.90;2.70;;;;;;;2.66;85.78;99158.17;84534;1334;23881;-70
2022/01/06 07:01:13;;;;;;;4.20;2.50;;;;;;;2.67;85.76;99162.98;84519;1332;26558;-70
2022/01/06 07:03:25;;;;;;;5.20;2.90;;;;;;;2.67;85.64;99165.38;84542;1331;22895;-71
2022/01/06 07:05:35;;;;;;;3.30;2.90;;;;;;;2.65;85.70;99168.01;84557;1334;22712;-74
2022/01/06 07:07:46;;;;;;;5.30;3.50;;;;;;;2.64;85.53;99169.92;84539;1331;26491;-74
2022/01/06 07:09:55;;;;;;;3.90;2.80;;;;;;;2.59;85.36;99169.02;84543;1334;22580;-71
2022/01/06 07:12:05;;;;;;;4.30;3.50;;;;;;;2.58;85.53;99172.69;84546;1331;22628;-70
2022/01/06 07:14:17;;;;;;;3.20;2.90;;;;;;;2.57;85.33;99173.89;84548;1334;22954;-71
2022/01/06 07:16:29;;;;;;;6.40;3.60;;;;;;;2.58;85.06;99178.53;84559;1327;22751;-71
2022/01/06 07:18:38;;;;;;;6.40;3.10;;;;;;;2.56;84.84;99185.96;84555;1327;22818;-70
2022/01/06 07:20:47;;;;;;;5.60;3.70;;;;;;;2.54;84.65;99187.89;84556;1334;22600;-74
2022/01/06 07:22:59;;;;;;;5.40;3.00;;;;;;;2.52;84.42;99193.66;84532;1334;22895;-74
2022/01/06 07:25:12;;;;;;;3.40;3.10;;;;;;;2.48;84.47;99193.22;84555;1324;22804;-75
2022/01/06 07:27:21;;;;;;;3.40;2.60;;;;;;;2.47;84.72;99199.11;84438;1336;22671;-74
2022/01/06 07:29:33;;;;;;;4.80;3.10;;;;;;;2.48;84.76;99199.08;84542;1331;22600;-75
2022/01/06 07:31:45;;;;;;;3.40;2.80;;;;;;;2.48;84.64;99200.97;84544;1334;24289;-75
2022/01/06 07:33:54;;;;;;;4.50;2.80;;;;;;;2.49;84.63;99208.86;84507;1334;23986;-74
2022/01/06 07:36:07;;;;;;;3.50;2.90;;;;;;;2.49;84.11;99220.06;84553;1334;22618;-71
2022/01/06 07:38:19;;;;;;;3.80;2.90;;;;;;;2.46;83.92;99224.42;84540;1331;22771;-70
2022/01/06 07:40:27;;;;;;;4.30;2.40;;;;;;;2.44;83.55;99225.48;84574;1333;22597;-74
2022/01/06 07:42:40;;;;;;;3.90;2.50;;;;;;;2.40;83.13;99231.98;84547;1334;22655;-75
2022/01/06 07:44:49;;;;;;;6.50;3.00;;;;;;;2.33;83.14;99232.82;84568;1334;22866;-73
2022/01/06 07:47:01;;;;;;;4.20;2.70;;;;;;;2.29;83.53;99236.52;84540;1334;23937;-74
2022/01/06 07:49:10;;;;;;;3.60;3.10;;;;;;;2.30;83.78;99246.13;84536;1333;22659;-74
2022/01/06 07:51:22;;;;;;;3.20;2.40;;;;;;;2.31;83.68;99250.06;84557;1334;24219;-70
2022/01/06 07:53:31;;;;;;;3.60;2.20;;;;;;;2.31;83.70;99249.72;84534;1334;26475;-70
2022/01/06 07:55:41;;;;;;;2.60;2.30;;;;;;;2.30;83.48;99246.81;84527;1328;22611;-72
2022/01/06 07:57:54;;;;;;;5.30;2.10;;;;;;;2.31;83.70;99249.38;84561;1334;22607;-70
2022/01/06 08:00:06;;;;;;;3.20;2.10;;;;;;;2.34;83.52;99255.16;84596;1330;25446;-71
2022/01/06 08:02:15;;;;;;;2.60;2.40;;;;;;;2.37;83.37;99258.55;84556;1326;22727;-71
2022/01/06 08:04:24;;;;;;;3.20;2.10;;;;;;;2.38;83.74;99257.14;84540;1332;24237;-71
2022/01/06 08:06:34;;;;;;;2.90;1.70;;;;;;;2.39;83.51;99256.27;84553;1334;22610;-73
2022/01/06 08:08:46;;;;;;;3.70;2.10;;;;;;;2.39;83.60;99261.77;84476;1336;22833;-74
2022/01/06 08:10:55;;;;;;;3.10;2.20;;;;;;;2.39;83.38;99261.94;84583;1334;23856;-70
2022/01/06 08:13:04;;;;;;;3.30;1.90;;;;;;;2.36;83.39;99264.77;84455;1336;22802;-70
2022/01/06 08:15:16;;;;;;;3.80;1.80;;;;;;;2.35;83.22;99263.05;84534;1327;23092;-74
2022/01/06 08:17:24;;;;;;;3.00;2.20;;;;;;;2.35;83.12;99266.49;84552;1332;22694;-75
2022/01/06 08:19:34;;;;;;;2.20;1.70;;;;;;;2.37;83.12;99269.90;84532;1334;22598;-72
2022/01/06 08:21:44;;;;;;;4.00;1.60;;;;;;;2.39;83.03;99271.91;84521;1334;22897;-74
2022/01/06 08:23:56;;;;;;;3.50;2.00;;;;;;;2.39;82.61;99277.96;84414;1335;25287;-75
2022/01/06 08:26:05;;;;;;;3.80;1.70;;;;;;;2.35;82.74;99280.96;84564;1333;23786;-76
2022/01/06 08:28:16;;;;;;;2.00;1.80;;;;;;;2.35;82.83;99276.30;84545;1332;22668;-74
2022/01/06 08:30:29;;;;;;;4.30;2.20;;;;;;;2.35;82.69;99282.50;84546;1333;22692;-70
2022/01/06 08:32:37;;;;;;;2.90;2.40;;;;;;;2.35;82.50;99280.95;84530;1334;25522;-71
2022/01/06 08:34:49;;;;;;;3.90;2.70;;;;;;;2.35;82.53;99281.11;84527;1332;22852;-70
2022/01/06 08:36:58;;;;;;;8.80;2.30;;;;;;;2.37;82.41;99286.27;84544;1332;24254;-71
2022/01/06 08:39:10;;;;;;;1.80;1.50;;;;;;;2.37;82.33;99288.16;84541;1334;22686;-71
2022/01/06 08:41:22;;;;;;;2.90;2.00;;;;;;;2.41;82.24;99295.27;84554;1330;22791;-74
2022/01/06 08:43:31;;;;;;;2.90;2.40;;;;;;;2.45;82.30;99297.27;84556;1334;24018;-75
2022/01/06 08:45:44;;;;;;;6.40;3.30;;;;;;;2.51;82.13;99306.26;84559;1334;22704;-75
2022/01/06 08:47:53;;;;;;;2.80;2.50;;;;;;;2.50;81.86;99311.27;84550;1332;22943;-74
2022/01/06 08:50:02;;;;;;;4.20;3.10;;;;;;;2.50;81.96;99318.82;84558;1331;23854;-74
2022/01/06 08:52:12;;;;;;;6.00;3.80;;;;;;;2.53;82.19;99317.91;84530;1334;22747;-74
2022/01/06 08:54:20;;;;;;;3.00;2.70;;;;;;;2.56;82.00;99317.66;84548;1330;22589;-75
2022/01/06 08:56:30;;;;;;;3.80;2.50;;;;;;;2.58;81.99;99324.70;84580;1334;23797;-76
2022/01/06 08:58:42;;;;;;;6.90;3.80;;;;;;;2.57;81.88;99326.27;84531;1333;25320;-75
2022/01/06 09:00:53;;;;;;;4.70;2.90;;;;;;;2.57;81.91;99333.65;84528;1334;22617;-70
2022/01/06 09:03:03;;;;;;;4.30;3.10;;;;;;;2.57;81.55;99330.73;84537;1334;22600;-71
2022/01/06 09:05:15;;;;;;;4.00;2.30;;;;;;;2.55;81.25;99334.04;84579;1334;22612;-70
2022/01/06 09:07:27;;;;;;;2.80;2.40;;;;;;;2.56;81.40;99332.48;84561;1328;22591;-71
2022/01/06 09:09:36;;;;;;;4.00;3.50;;;;;;;2.59;81.38;99333.96;84550;1334;22906;-72
2022/01/06 09:11:45;;;;;;;4.10;3.70;;;;;;;2.59;81.33;99332.39;84545;1334;22635;-71
2022/01/06 09:13:54;;;;;;;5.20;3.40;;;;;;;2.59;80.90;99337.04;84524;1331;23116;-70
2022/01/06 09:16:08;;;;;;;3.60;2.80;;;;;;;2.62;81.08;99343.02;84463;1326;22859;-76
2022/01/06 09:18:20;;;;;;;4.50;3.30;;;;;;;2.62;80.82;99339.58;84559;1334;22707;-74
2022/01/06 09:20:32;;;;;;;3.70;3.30;;;;;;;2.60;81.04;99343.05;84537;1329;23871;-71
2022/01/06 09:22:42;;;;;;;4.50;3.60;;;;;;;2.58;80.46;99350.51;84526;1334;23950;-70
2022/01/06 09:24:51;;;;;;;5.90;4.10;;;;;;;2.52;80.46;99347.54;84564;1334;22599;-74
2022/01/06 09:27:03;;;;;;;6.90;3.00;;;;;;;2.50;80.71;99349.65;84447;1332;25464;-75
2022/01/06 09:29:13;;;;;;;5.60;3.70;;;;;;;2.49;80.59;99350.70;84536;1333;22605;-75
2022/01/06 09:31:21;;;;;;;;;;;;;;;2.49;80.63;99355.70;84593;1332;22878;-70
2022/01/06 09:33:34;;;;;;;3.20;2.40;;;;;;;2.48;80.86;99360.70;84534;1334;23964;-70
2022/01/06 09:35:46;;;;;;;4.10;2.50;;;;;;;2.52;80.78;99367.67;84563;1334;22605;-70
2022/01/06 09:37:59;;;;;;;4.80;3.40;;;;;;;2.56;80.83;99368.79;84546;1334;24276;-71
2022/01/06 09:40:14;;;;;;;3.80;3.30;;;;;;;2.59;80.92;99371.83;84426;1337;22659;-75
2022/01/06 09:42:23;;;;;;;5.60;3.20;;;;;;;2.60;80.87;99375.42;84558;1334;22633;-73
2022/01/06 09:44:39;;;;;;;3.80;3.40;;;;;;;2.63;81.05;99375.89;84557;1334;22609;-73
2022/01/06 09:46:48;;;;;;;6.20;4.50;;;;;;;2.64;80.82;99378.97;84568;1327;24299;-74
2022/01/06 09:49:04;;;;;;;5.00;4.20;;;;;;;2.63;80.76;99382.27;84552;1323;22976;-75
2022/01/06 09:51:13;;;;;;;6.10;3.60;;;;;;;2.63;80.53;99381.92;84558;1334;22600;-75
2022/01/06 09:53:26;;;;;;;4.70;3.60;;;;;;;2.62;80.63;99376.77;84554;1334;22882;-74
2022/01/06 09:55:36;;;;;;;5.40;3.60;;;;;;;2.63;80.56;99380.73;84576;1334;25467;-76
2022/01/06 09:58:00;;;;;;;5.20;3.50;;;;;;;2.64;80.54;99380.86;84544;1331;22587;-77
2022/01/06 10:00:17;;;;;;;6.30;2.80;;;;;;;2.64;80.29;99386.54;84539;1333;23853;-70
2022/01/06 10:02:38;;;;;;;3.50;2.60;;;;;;;2.65;80.45;99385.13;84557;1332;24217;-72
2022/01/06 10:04:58;;;;;;;5.40;3.60;;;;;;;2.68;80.52;99384.73;84465;1334;23929;-70
2022/01/06 10:07:15;;;;;;;5.00;3.00;;;;;;;2.70;80.49;99390.36;84519;1332;22962;-71
2022/01/06 10:09:29;;;;;;;4.60;3.90;;;;;;;2.66;79.96;99391.31;84590;1334;23955;-73
2022/01/06 10:11:39;;;;;;;4.80;3.10;;;;;;;2.62;80.14;99385.40;84526;1334;22600;-73
2022/01/06 10:13:58;;;;;;;4.90;4.00;;;;;;;2.58;80.04;99388.38;84546;1327;22620;-74
2022/01/06 10:16:18;;;;;;;4.70;3.60;;;;;;;2.55;80.29;99387.06;82414;1334;1003797;-71
2022/01/06 10:18:28;;;;;;;5.00;3.10;;;;;;;2.56;80.44;99391.52;84578;1334;23867;-77
2022/01/06 10:20:37;;;;;;;6.80;3.50;;;;;;;2.57;80.48;99392.38;84577;1332;24400;-72
2022/01/06 10:22:51;;;;;;;4.80;4.20;;;;;;;2.56;80.41;99394.28;84523;1332;22604;-73
2022/01/06 10:25:11;;;;;;;4.30;3.00;;;;;;;2.57;80.22;99396.67;84551;1334;22738;-76
2022/01/06 10:27:21;;;;;;;3.20;2.80;;;;;;;2.59;80.19;99402.48;84528;1334;22726;-74